createdAt,value
2018-11-02T00:00:49.085Z,1003.9
2018-11-02T00:01:51.420Z,1004
2018-11-02T00:02:53.452Z,1004
2018-11-02T00:03:55.470Z,1004
2018-11-02T00:04:58.175Z,1003.9
2018-11-02T00:06:00.226Z,1003.9
2018-11-02T00:07:03.020Z,1003.9
2018-11-02T00:08:05.128Z,1003.9
2018-11-02T00:09:07.146Z,1004
2018-11-02T00:10:09.182Z,1003.9
2018-11-02T00:11:11.209Z,1004
2018-11-02T00:12:13.283Z,1003.9
2018-11-02T00:13:15.259Z,1004
2018-11-02T00:14:17.660Z,1004
2018-11-02T00:15:19.690Z,1004
2018-11-02T00:16:22.013Z,1004
2018-11-02T00:17:24.416Z,1003.9
2018-11-02T00:18:26.461Z,1004
2018-11-02T00:19:28.476Z,1003.9
2018-11-02T00:20:31.169Z,1004
2018-11-02T00:21:33.195Z,1003.9
2018-11-02T00:22:35.216Z,1003.9
2018-11-02T00:23:37.229Z,1003.8
2018-11-02T00:24:39.260Z,1003.8
2018-11-02T00:25:41.284Z,1003.8
2018-11-02T00:26:43.310Z,1003.8
2018-11-02T00:27:45.679Z,1003.8
2018-11-02T00:28:47.701Z,1003.9
2018-11-02T00:29:49.715Z,1003.9
2018-11-02T00:30:51.744Z,1003.9
2018-11-02T00:31:53.900Z,1003.9
2018-11-02T00:32:56.354Z,1003.9
2018-11-02T00:33:58.378Z,1003.9
2018-11-02T00:35:00.679Z,1003.9
2018-11-02T00:36:03.035Z,1003.9
2018-11-02T00:37:05.050Z,1003.9
2018-11-02T00:38:07.367Z,1003.9
2018-11-02T00:39:09.378Z,1004
2018-11-02T00:40:11.409Z,1004
2018-11-02T00:41:13.429Z,1004
2018-11-02T00:42:15.446Z,1004
2018-11-02T00:43:17.476Z,1004
2018-11-02T00:44:19.483Z,1004
2018-11-02T00:45:21.892Z,1004.1
2018-11-02T00:46:23.905Z,1004.1
2018-11-02T00:47:25.932Z,1004.1
2018-11-02T00:48:27.950Z,1004.1
2018-11-02T00:49:30.359Z,1004.1
2018-11-02T00:50:32.364Z,1004.1
2018-11-02T00:51:34.788Z,1004.1
2018-11-02T00:52:37.185Z,1004.2
2018-11-02T00:53:39.596Z,1004.2
2018-11-02T00:54:41.635Z,1004.1
2018-11-02T00:55:43.654Z,1004.1
2018-11-02T00:56:45.672Z,1004.1
2018-11-02T00:57:47.691Z,1004.1
2018-11-02T00:58:50.003Z,1004.1
2018-11-02T00:59:52.456Z,1004.1
2018-11-02T01:00:54.489Z,1004.2
2018-11-02T01:01:56.510Z,1004.2
2018-11-02T01:02:58.531Z,1004.2
2018-11-02T01:04:00.842Z,1004.2
2018-11-02T01:05:03.179Z,1004.2
2018-11-02T01:06:05.458Z,1004.2
2018-11-02T01:07:07.485Z,1004.2
2018-11-02T01:08:09.497Z,1004.1
2018-11-02T01:09:11.518Z,1004.2
2018-11-02T01:10:13.546Z,1004.1
2018-11-02T01:11:15.569Z,1004.1
2018-11-02T01:12:17.583Z,1004.1
2018-11-02T01:13:19.610Z,1004.1
2018-11-02T01:14:21.632Z,1004.1
2018-11-02T01:15:23.644Z,1004.1
2018-11-02T01:16:25.741Z,1004.1
2018-11-02T01:17:27.692Z,1004.1
2018-11-02T01:18:29.709Z,1004.1
2018-11-02T01:19:32.105Z,1004.2
2018-11-02T01:20:34.131Z,1004.1
2018-11-02T01:21:36.152Z,1004.2
2018-11-02T01:22:38.183Z,1004.2
2018-11-02T01:23:40.238Z,1004.2
2018-11-02T01:24:42.218Z,1004.2
2018-11-02T01:25:44.244Z,1004.2
2018-11-02T01:26:46.296Z,1004.2
2018-11-02T01:27:48.292Z,1004.2
2018-11-02T01:28:50.995Z,1004.2
2018-11-02T01:29:53.012Z,1004.2
2018-11-02T01:30:55.041Z,1004.2
2018-11-02T01:31:57.650Z,1004.1
2018-11-02T01:32:59.982Z,1004.1
2018-11-02T01:34:02.013Z,1004.2
2018-11-02T01:35:04.325Z,1004.2
2018-11-02T01:36:06.344Z,1004.3
2018-11-02T01:37:08.666Z,1004.3
2018-11-02T01:38:10.976Z,1004.3
2018-11-02T01:39:13.415Z,1004.4
2018-11-02T01:40:15.441Z,1004.3
2018-11-02T01:41:18.126Z,1004.3
2018-11-02T01:42:20.529Z,1004.3
2018-11-02T01:43:22.841Z,1004.4
2018-11-02T01:44:24.868Z,1004.4
2018-11-02T01:45:27.210Z,1004.4
2018-11-02T01:46:29.238Z,1004.5
2018-11-02T01:47:31.861Z,1004.6
2018-11-02T01:48:34.265Z,1004.6
2018-11-02T01:49:36.682Z,1004.6
2018-11-02T01:50:38.692Z,1004.7
2018-11-02T01:51:40.721Z,1004.7
2018-11-02T01:52:43.031Z,1004.7
2018-11-02T01:53:45.060Z,1004.8
2018-11-02T01:54:47.074Z,1004.7
2018-11-02T01:55:49.103Z,1004.7
2018-11-02T01:56:51.127Z,1004.8
2018-11-02T01:57:53.135Z,1004.8
2018-11-02T01:58:55.495Z,1004.7
2018-11-02T01:59:57.792Z,1004.7
2018-11-02T02:00:59.802Z,1004.8
2018-11-02T02:02:01.825Z,1004.8
2018-11-02T02:03:04.235Z,1004.7
2018-11-02T02:04:06.251Z,1004.8
2018-11-02T02:05:08.284Z,1004.7
2018-11-02T02:06:10.298Z,1004.7
2018-11-02T02:07:12.310Z,1004.8
2018-11-02T02:08:14.623Z,1004.8
2018-11-02T02:09:16.652Z,1004.8
2018-11-02T02:10:18.669Z,1004.8
2018-11-02T02:11:21.300Z,1004.8
2018-11-02T02:12:23.324Z,1004.9
2018-11-02T02:13:25.850Z,1004.8
2018-11-02T02:14:28.169Z,1004.9
2018-11-02T02:15:30.183Z,1004.9
2018-11-02T02:16:32.225Z,1004.9
2018-11-02T02:17:34.603Z,1004.9
2018-11-02T02:18:36.631Z,1004.9
2018-11-02T02:19:38.645Z,1004.9
2018-11-02T02:20:40.984Z,1004.9
2018-11-02T02:21:43.009Z,1004.9
2018-11-02T02:22:45.021Z,1004.8
2018-11-02T02:23:47.046Z,1004.8
2018-11-02T02:24:49.067Z,1004.8
2018-11-02T02:25:51.092Z,1004.8
2018-11-02T02:26:53.105Z,1004.7
2018-11-02T02:27:55.132Z,1004.7
2018-11-02T02:28:57.149Z,1004.6
2018-11-02T02:29:59.164Z,1004.6
2018-11-02T02:31:01.193Z,1004.6
2018-11-02T02:32:03.585Z,1004.6
2018-11-02T02:33:05.612Z,1004.5
2018-11-02T02:34:07.635Z,1004.5
2018-11-02T02:35:09.658Z,1004.6
2018-11-02T02:36:11.670Z,1004.6
2018-11-02T02:37:13.693Z,1004.6
2018-11-02T02:38:15.718Z,1004.6
2018-11-02T02:39:17.731Z,1004.6
2018-11-02T02:40:19.765Z,1004.5
2018-11-02T02:41:21.786Z,1004.6
2018-11-02T02:42:24.195Z,1004.6
2018-11-02T02:43:26.211Z,1004.7
2018-11-02T02:44:28.243Z,1004.7
2018-11-02T02:45:30.298Z,1004.7
2018-11-02T02:46:32.284Z,1004.7
2018-11-02T02:47:34.312Z,1004.8
2018-11-02T02:48:36.327Z,1004.8
2018-11-02T02:49:38.351Z,1004.9
2018-11-02T02:50:40.797Z,1004.9
2018-11-02T02:51:43.416Z,1005
2018-11-02T02:52:45.433Z,1004.9
2018-11-02T02:53:47.453Z,1004.9
2018-11-02T02:54:49.480Z,1004.9
2018-11-02T02:55:51.492Z,1004.9
2018-11-02T02:56:53.520Z,1004.9
2018-11-02T02:57:55.543Z,1004.9
2018-11-02T02:58:57.950Z,1005
2018-11-02T03:00:00.636Z,1005
2018-11-02T03:01:02.948Z,1004.9
2018-11-02T03:02:05.346Z,1005
2018-11-02T03:03:07.366Z,1005
2018-11-02T03:04:09.398Z,1005.1
2018-11-02T03:05:11.792Z,1005.1
2018-11-02T03:06:14.109Z,1004.9
2018-11-02T03:07:16.138Z,1005
2018-11-02T03:08:18.160Z,1004.9
2018-11-02T03:09:20.797Z,1005
2018-11-02T03:10:22.858Z,1005.1
2018-11-02T03:11:25.279Z,1005.1
2018-11-02T03:12:27.685Z,1005.2
2018-11-02T03:13:29.711Z,1005.2
2018-11-02T03:14:31.748Z,1005.2
2018-11-02T03:15:33.747Z,1005.3
2018-11-02T03:16:35.774Z,1005.3
2018-11-02T03:17:37.784Z,1005.3
2018-11-02T03:18:39.905Z,1005.3
2018-11-02T03:19:42.245Z,1005.3
2018-11-02T03:20:44.259Z,1005.4
2018-11-02T03:21:46.283Z,1005.4
2018-11-02T03:22:48.306Z,1005.3
2018-11-02T03:23:50.333Z,1005.2
2018-11-02T03:24:52.346Z,1005.1
2018-11-02T03:25:54.764Z,1005
2018-11-02T03:26:57.158Z,1005
2018-11-02T03:27:59.172Z,1005.1
2018-11-02T03:29:01.208Z,1005.1
2018-11-02T03:30:03.999Z,1005.1
2018-11-02T03:31:06.350Z,1005.1
2018-11-02T03:32:08.315Z,1005.2
2018-11-02T03:33:11.034Z,1005.2
2018-11-02T03:34:13.049Z,1005.2
2018-11-02T03:35:15.074Z,1005.2
2018-11-02T03:36:17.381Z,1005.2
2018-11-02T03:37:19.387Z,1005.1
2018-11-02T03:38:21.416Z,1005.1
2018-11-02T03:39:23.439Z,1005.1
2018-11-02T03:40:25.452Z,1005.1
2018-11-02T03:41:27.755Z,1005.1
2018-11-02T03:42:29.780Z,1005.2
2018-11-02T03:43:31.792Z,1005.1
2018-11-02T03:44:33.824Z,1005.1
2018-11-02T03:45:35.848Z,1005.1
2018-11-02T03:46:37.889Z,1005.2
2018-11-02T03:47:39.874Z,1005.3
2018-11-02T03:48:41.898Z,1005.3
2018-11-02T03:49:43.912Z,1005.3
2018-11-02T03:50:46.231Z,1005.3
2018-11-02T03:51:48.256Z,1005.3
2018-11-02T03:52:50.298Z,1005.3
2018-11-02T03:53:52.302Z,1005.3
2018-11-02T03:54:54.695Z,1005.2
2018-11-02T03:55:56.712Z,1005.3
2018-11-02T03:57:00.736Z,1005.3
2018-11-02T03:58:02.639Z,1005.3
2018-11-02T03:59:04.948Z,1005.3
2018-11-02T04:00:06.975Z,1005.2
2018-11-02T04:01:08.982Z,1005.3
2018-11-02T04:02:11.016Z,1005.3
2018-11-02T04:03:13.019Z,1005.4
2018-11-02T04:04:15.653Z,1005.3
2018-11-02T04:05:17.960Z,1005.4
2018-11-02T04:06:20.287Z,1005.3
2018-11-02T04:07:22.978Z,1005.4
2018-11-02T04:08:25.381Z,1005.4
2018-11-02T04:09:27.747Z,1005.3
2018-11-02T04:10:29.702Z,1005.4
2018-11-02T04:11:31.743Z,1005.4
2018-11-02T04:12:33.749Z,1005.4
2018-11-02T04:13:35.769Z,1005.5
2018-11-02T04:14:38.085Z,1005.4
2018-11-02T04:15:40.111Z,1005.4
2018-11-02T04:16:42.418Z,1005.4
2018-11-02T04:17:44.441Z,1005.4
2018-11-02T04:18:46.458Z,1005.4
2018-11-02T04:19:48.538Z,1005.5
2018-11-02T04:20:50.483Z,1005.5
2018-11-02T04:21:52.505Z,1005.5
2018-11-02T04:22:54.523Z,1005.5
2018-11-02T04:23:56.859Z,1005.5
2018-11-02T04:24:59.653Z,1005.5
2018-11-02T04:26:01.679Z,1005.5
2018-11-02T04:27:03.714Z,1005.5
2018-11-02T04:28:05.722Z,1005.4
2018-11-02T04:29:07.745Z,1005.5
2018-11-02T04:30:10.370Z,1005.3
2018-11-02T04:31:12.420Z,1005.4
2018-11-02T04:32:14.407Z,1005.4
2018-11-02T04:33:16.429Z,1005.5
2018-11-02T04:34:18.454Z,1005.5
2018-11-02T04:35:20.525Z,1005.4
2018-11-02T04:36:22.487Z,1005.5
2018-11-02T04:37:24.928Z,1005.5
2018-11-02T04:38:26.951Z,1005.5
2018-11-02T04:39:29.277Z,1005.5
2018-11-02T04:40:32.008Z,1005.5
2018-11-02T04:41:34.330Z,1005.5
2018-11-02T04:42:36.653Z,1005.5
2018-11-02T04:43:38.717Z,1005.5
2018-11-02T04:44:40.722Z,1005.5
2018-11-02T04:45:42.740Z,1005.5
2018-11-02T04:46:44.767Z,1005.5
2018-11-02T04:47:47.211Z,1005.6
2018-11-02T04:48:49.225Z,1005.6
2018-11-02T04:49:51.252Z,1005.7
2018-11-02T04:50:53.575Z,1005.7
2018-11-02T04:51:56.614Z,1005.7
2018-11-02T04:52:58.937Z,1005.7
2018-11-02T04:54:00.957Z,1005.7
2018-11-02T04:55:03.273Z,1005.8
2018-11-02T04:56:05.296Z,1005.8
2018-11-02T04:57:07.312Z,1005.9
2018-11-02T04:58:09.327Z,1005.9
2018-11-02T04:59:11.345Z,1006
2018-11-02T05:00:14.049Z,1006
2018-11-02T05:01:16.072Z,1006
2018-11-02T05:02:18.091Z,1006
2018-11-02T05:03:20.113Z,1006
2018-11-02T05:04:22.139Z,1006
2018-11-02T05:05:24.167Z,1006
2018-11-02T05:06:26.185Z,1006
2018-11-02T05:07:28.201Z,1006
2018-11-02T05:08:30.238Z,1006
2018-11-02T05:09:32.633Z,1005.9
2018-11-02T05:10:35.275Z,1006.1
2018-11-02T05:11:37.621Z,1006.1
2018-11-02T05:12:40.240Z,1006.1
2018-11-02T05:13:42.253Z,1006.1
2018-11-02T05:14:44.272Z,1006.2
2018-11-02T05:15:46.286Z,1006.2
2018-11-02T05:16:48.311Z,1006.1
2018-11-02T05:17:50.322Z,1006.2
2018-11-02T05:18:52.382Z,1006.2
2018-11-02T05:19:54.962Z,1006.2
2018-11-02T05:20:57.019Z,1006.2
2018-11-02T05:21:59.377Z,1006.2
2018-11-02T05:23:01.437Z,1006.2
2018-11-02T05:24:03.705Z,1006.3
2018-11-02T05:25:05.722Z,1006.2
2018-11-02T05:26:08.044Z,1006.3
2018-11-02T05:27:10.355Z,1006.3
2018-11-02T05:28:12.947Z,1006.4
2018-11-02T05:29:15.337Z,1006.4
2018-11-02T05:30:17.590Z,1006.4
2018-11-02T05:31:19.993Z,1006.5
2018-11-02T05:32:22.021Z,1006.5
2018-11-02T05:33:24.319Z,1006.5
2018-11-02T05:34:26.722Z,1006.5
2018-11-02T05:35:28.742Z,1006.6
2018-11-02T05:36:30.766Z,1006.5
2018-11-02T05:37:33.068Z,1006.4
2018-11-02T05:38:35.082Z,1006.5
2018-11-02T05:39:37.466Z,1006.6
2018-11-02T05:40:39.414Z,1006.7
2018-11-02T05:41:41.437Z,1006.7
2018-11-02T05:42:43.445Z,1006.8
2018-11-02T05:43:45.468Z,1006.7
2018-11-02T05:44:47.867Z,1006.7
2018-11-02T05:45:49.895Z,1006.7
2018-11-02T05:46:52.287Z,1006.7
2018-11-02T05:47:54.697Z,1006.8
2018-11-02T05:48:56.723Z,1006.8
2018-11-02T05:49:58.726Z,1006.8
2018-11-02T05:51:00.753Z,1006.8
2018-11-02T05:52:03.072Z,1006.7
2018-11-02T05:53:05.094Z,1006.8
2018-11-02T05:54:07.252Z,1006.9
2018-11-02T05:55:09.601Z,1006.8
2018-11-02T05:56:11.590Z,1006.8
2018-11-02T05:57:13.603Z,1006.8
2018-11-02T05:58:15.622Z,1006.8
2018-11-02T05:59:17.654Z,1006.8
2018-11-02T06:00:19.673Z,1006.9
2018-11-02T06:01:21.736Z,1006.9
2018-11-02T06:02:23.712Z,1006.9
2018-11-02T06:03:26.026Z,1007
2018-11-02T06:04:28.041Z,1007
2018-11-02T06:05:30.408Z,1006.9
2018-11-02T06:06:32.415Z,1007
2018-11-02T06:07:34.452Z,1007
2018-11-02T06:08:37.119Z,1007
2018-11-02T06:09:39.108Z,1007.1
2018-11-02T06:10:41.120Z,1007
2018-11-02T06:11:43.148Z,1007.1
2018-11-02T06:12:45.460Z,1007
2018-11-02T06:13:47.474Z,1007
2018-11-02T06:14:49.509Z,1007.1
2018-11-02T06:15:52.510Z,1007.2
2018-11-02T06:16:54.615Z,1007.1
2018-11-02T06:17:57.426Z,1007.2
2018-11-02T06:18:59.449Z,1007.2
2018-11-02T06:20:01.758Z,1007.2
2018-11-02T06:21:03.782Z,1007.2
2018-11-02T06:22:05.805Z,1007.3
2018-11-02T06:23:07.812Z,1007.3
2018-11-02T06:24:09.916Z,1007.3
2018-11-02T06:25:13.184Z,1007.3
2018-11-02T06:26:15.491Z,1007.2
2018-11-02T06:27:18.197Z,1007.3
2018-11-02T06:28:20.213Z,1007.3
2018-11-02T06:29:22.234Z,1007.2
2018-11-02T06:30:24.659Z,1007.3
2018-11-02T06:31:27.431Z,1007.3
2018-11-02T06:32:29.525Z,1007.3
2018-11-02T06:33:31.479Z,1007.3
2018-11-02T06:34:33.828Z,1007.3
2018-11-02T06:35:35.852Z,1007.4
2018-11-02T06:36:38.256Z,1007.4
2018-11-02T06:37:40.271Z,1007.4
2018-11-02T06:38:42.368Z,1007.4
2018-11-02T06:39:44.313Z,1007.4
2018-11-02T06:40:46.338Z,1007.4
2018-11-02T06:41:48.362Z,1007.3
2018-11-02T06:42:50.390Z,1007.4
2018-11-02T06:43:52.403Z,1007.4
2018-11-02T06:44:54.566Z,1007.4
2018-11-02T06:45:56.452Z,1007.5
2018-11-02T06:46:58.771Z,1007.5
2018-11-02T06:48:00.806Z,1007.5
2018-11-02T06:49:02.837Z,1007.5
2018-11-02T06:50:04.841Z,1007.5
2018-11-02T06:51:07.348Z,1007.5
2018-11-02T06:52:10.096Z,1007.5
2018-11-02T06:53:12.113Z,1007.6
2018-11-02T06:54:14.132Z,1007.6
2018-11-02T06:55:16.157Z,1007.6
2018-11-02T06:56:18.168Z,1007.5
2018-11-02T06:57:20.204Z,1007.6
2018-11-02T06:58:22.520Z,1007.6
2018-11-02T06:59:24.595Z,1007.7
2018-11-02T07:00:27.243Z,1007.6
2018-11-02T07:01:29.120Z,1007.6
2018-11-02T07:02:31.142Z,1007.6
2018-11-02T07:03:33.177Z,1007.6
2018-11-02T07:04:35.479Z,1007.7
2018-11-02T07:05:37.513Z,1007.7
2018-11-02T07:06:39.892Z,1007.7
2018-11-02T07:07:42.215Z,1007.8
2018-11-02T07:08:44.667Z,1007.8
2018-11-02T07:09:46.691Z,1007.9
2018-11-02T07:10:48.719Z,1007.9
2018-11-02T07:11:50.735Z,1007.9
2018-11-02T07:12:52.765Z,1007.9
2018-11-02T07:13:54.788Z,1007.9
2018-11-02T07:14:56.829Z,1007.9
2018-11-02T07:15:58.847Z,1008
2018-11-02T07:17:00.850Z,1007.9
2018-11-02T07:18:02.865Z,1008
2018-11-02T07:19:04.887Z,1008
2018-11-02T07:20:06.922Z,1008
2018-11-02T07:21:09.220Z,1008
2018-11-02T07:22:11.239Z,1008.1
2018-11-02T07:23:13.263Z,1008.1
2018-11-02T07:24:15.284Z,1008
2018-11-02T07:25:17.447Z,1008.1
2018-11-02T07:26:19.915Z,1008.1
2018-11-02T07:27:22.232Z,1008
2018-11-02T07:28:24.249Z,1008
2018-11-02T07:29:26.285Z,1008
2018-11-02T07:30:28.298Z,1008
2018-11-02T07:31:30.319Z,1008
2018-11-02T07:32:32.351Z,1008
2018-11-02T07:33:34.382Z,1007.9
2018-11-02T07:34:36.588Z,1008
2018-11-02T07:35:39.223Z,1008
2018-11-02T07:36:41.645Z,1008
2018-11-02T07:37:44.009Z,1007.9
2018-11-02T07:38:46.040Z,1008
2018-11-02T07:39:48.061Z,1008
2018-11-02T07:40:50.085Z,1008
2018-11-02T07:41:52.111Z,1008
2018-11-02T07:42:54.164Z,1008.1
2018-11-02T07:43:56.549Z,1008.1
2018-11-02T07:44:59.166Z,1008.1
2018-11-02T07:46:01.203Z,1008.1
2018-11-02T07:47:03.509Z,1008.1
2018-11-02T07:48:05.529Z,1008.2
2018-11-02T07:49:07.547Z,1008.1
2018-11-02T07:50:09.579Z,1008.1
2018-11-02T07:51:11.601Z,1008.1
2018-11-02T07:52:13.621Z,1008.1
2018-11-02T07:53:15.650Z,1008.1
2018-11-02T07:54:17.958Z,1008.2
2018-11-02T07:55:19.994Z,1008.1
2018-11-02T07:56:22.550Z,1008.1
2018-11-02T07:57:24.583Z,1008
2018-11-02T07:58:26.598Z,1008
2018-11-02T07:59:28.632Z,1008
2018-11-02T08:00:31.253Z,1008.1
2018-11-02T08:01:33.682Z,1008
2018-11-02T08:02:35.705Z,1008
2018-11-02T08:03:37.715Z,1008
2018-11-02T08:04:40.032Z,1008.1
2018-11-02T08:05:42.076Z,1008
2018-11-02T08:06:44.403Z,1008
2018-11-02T08:07:46.420Z,1008.1
2018-11-02T08:08:48.838Z,1008
2018-11-02T08:09:50.865Z,1008
2018-11-02T08:10:52.896Z,1007.9
2018-11-02T08:11:54.938Z,1007.9
2018-11-02T08:12:56.966Z,1007.9
2018-11-02T08:13:59.657Z,1007.9
2018-11-02T08:15:01.691Z,1007.9
2018-11-02T08:16:03.712Z,1008
2018-11-02T08:17:05.734Z,1008
2018-11-02T08:18:07.767Z,1008
2018-11-02T08:19:10.617Z,1008.1
2018-11-02T08:20:12.559Z,1008.2
2018-11-02T08:21:14.591Z,1008.1
2018-11-02T08:22:16.624Z,1008.2
2018-11-02T08:23:18.653Z,1008.2
2018-11-02T08:24:21.020Z,1008.2
2018-11-02T08:25:23.015Z,1008.2
2018-11-02T08:26:25.052Z,1008.2
2018-11-02T08:27:27.452Z,1008.3
2018-11-02T08:28:29.491Z,1008.3
2018-11-02T08:29:31.523Z,1008.3
2018-11-02T08:30:33.946Z,1008.3
2018-11-02T08:31:36.355Z,1008.4
2018-11-02T08:32:38.395Z,1008.4
2018-11-02T08:33:40.418Z,1008.4
2018-11-02T08:34:42.438Z,1008.3
2018-11-02T08:35:44.860Z,1008.4
2018-11-02T08:36:46.878Z,1008.3
2018-11-02T08:37:49.191Z,1008.3
2018-11-02T08:38:51.225Z,1008.3
2018-11-02T08:39:53.257Z,1008.3
2018-11-02T08:40:55.871Z,1008.3
2018-11-02T08:41:58.185Z,1008.4
2018-11-02T08:43:00.208Z,1008.5
2018-11-02T08:44:02.522Z,1008.4
2018-11-02T08:45:04.565Z,1008.4
2018-11-02T08:46:06.595Z,1008.5
2018-11-02T08:47:08.622Z,1008.5
2018-11-02T08:48:10.662Z,1008.5
2018-11-02T08:49:12.695Z,1008.6
2018-11-02T08:50:14.722Z,1008.5
2018-11-02T08:51:16.754Z,1008.6
2018-11-02T08:52:18.852Z,1008.6
2018-11-02T08:53:21.724Z,1008.7
2018-11-02T08:54:23.755Z,1008.7
2018-11-02T08:55:25.795Z,1008.7
2018-11-02T08:56:27.817Z,1008.7
2018-11-02T08:57:29.857Z,1008.7
2018-11-02T08:58:32.439Z,1008.7
2018-11-02T08:59:35.867Z,1008.7
2018-11-02T09:00:38.983Z,1008.7
2018-11-02T09:01:41.305Z,1008.8
2018-11-02T09:02:43.655Z,1008.7
2018-11-02T09:03:45.663Z,1008.8
2018-11-02T09:04:48.066Z,1008.8
2018-11-02T09:05:50.038Z,1008.8
2018-11-02T09:06:52.064Z,1008.8
2018-11-02T09:07:54.091Z,1008.8
2018-11-02T09:08:56.416Z,1008.8
2018-11-02T09:09:58.439Z,1008.8
2018-11-02T09:11:00.470Z,1008.8
2018-11-02T09:12:02.546Z,1008.9
2018-11-02T09:13:04.830Z,1008.9
2018-11-02T09:14:06.858Z,1008.9
2018-11-02T09:15:09.178Z,1008.9
2018-11-02T09:16:11.871Z,1008.9
2018-11-02T09:17:14.191Z,1009
2018-11-02T09:18:16.247Z,1008.9
2018-11-02T09:19:18.919Z,1008.9
2018-11-02T09:20:21.645Z,1009
2018-11-02T09:21:23.686Z,1009
2018-11-02T09:22:25.712Z,1009
2018-11-02T09:23:27.745Z,1009
2018-11-02T09:24:29.775Z,1009
2018-11-02T09:25:31.796Z,1009
2018-11-02T09:26:33.832Z,1009
2018-11-02T09:27:36.311Z,1009
2018-11-02T09:28:38.249Z,1009
2018-11-02T09:29:40.278Z,1009
2018-11-02T09:30:42.317Z,1009.1
2018-11-02T09:31:44.354Z,1009.1
2018-11-02T09:32:46.381Z,1009
2018-11-02T09:33:48.811Z,1009.1
2018-11-02T09:34:50.832Z,1009.1
2018-11-02T09:35:52.865Z,1009.1
2018-11-02T09:36:54.892Z,1009.2
2018-11-02T09:37:56.930Z,1009.1
2018-11-02T09:38:59.346Z,1009.2
2018-11-02T09:40:01.389Z,1009.1
2018-11-02T09:41:03.710Z,1009.2
2018-11-02T09:42:05.726Z,1009.2
2018-11-02T09:43:07.769Z,1009.2
2018-11-02T09:44:09.797Z,1009.3
2018-11-02T09:45:12.120Z,1009.3
2018-11-02T09:46:14.166Z,1009.4
2018-11-02T09:47:16.512Z,1009.3
2018-11-02T09:48:18.533Z,1009.3
2018-11-02T09:49:20.576Z,1009.4
2018-11-02T09:50:22.600Z,1009.4
2018-11-02T09:51:25.435Z,1009.3
2018-11-02T09:52:27.811Z,1009.3
2018-11-02T09:53:29.845Z,1009.5
2018-11-02T09:54:31.867Z,1009.4
2018-11-02T09:55:33.903Z,1009.5
2018-11-02T09:56:36.321Z,1009.6
2018-11-02T09:57:38.412Z,1009.5
2018-11-02T09:58:40.384Z,1009.6
2018-11-02T09:59:42.709Z,1009.6
2018-11-02T10:00:44.736Z,1009.7
2018-11-02T10:01:46.761Z,1009.6
2018-11-02T10:02:49.181Z,1009.6
2018-11-02T10:03:51.203Z,1009.7
2018-11-02T10:04:53.239Z,1009.7
2018-11-02T10:05:55.269Z,1009.7
2018-11-02T10:06:57.289Z,1009.7
2018-11-02T10:07:59.619Z,1009.6
2018-11-02T10:09:01.964Z,1009.6
2018-11-02T10:10:04.000Z,1009.6
2018-11-02T10:11:06.023Z,1009.7
2018-11-02T10:12:08.368Z,1009.7
2018-11-02T10:13:11.351Z,1009.7
2018-11-02T10:14:13.371Z,1009.8
2018-11-02T10:15:15.408Z,1009.8
2018-11-02T10:16:17.431Z,1009.8
2018-11-02T10:17:19.459Z,1009.8
2018-11-02T10:18:21.770Z,1009.8
2018-11-02T10:19:24.090Z,1009.8
2018-11-02T10:20:26.124Z,1009.9
2018-11-02T10:21:28.144Z,1009.9
2018-11-02T10:22:30.181Z,1009.9
2018-11-02T10:23:32.205Z,1009.9
2018-11-02T10:24:34.218Z,1009.9
2018-11-02T10:25:36.244Z,1009.9
2018-11-02T10:26:38.280Z,1010
2018-11-02T10:27:40.656Z,1010.1
2018-11-02T10:28:43.697Z,1010
2018-11-02T10:29:45.798Z,1010
2018-11-02T10:30:48.047Z,1010
2018-11-02T10:31:50.086Z,1009.9
2018-11-02T10:32:52.496Z,1010.1
2018-11-02T10:33:54.926Z,1010.3
2018-11-02T10:34:56.953Z,1010.2
2018-11-02T10:35:59.032Z,1010.1
2018-11-02T10:37:01.009Z,1010.2
2018-11-02T10:38:03.036Z,1010.1
2018-11-02T10:39:05.070Z,1010.2
2018-11-02T10:40:07.097Z,1010.3
2018-11-02T10:41:09.420Z,1010.3
2018-11-02T10:42:11.745Z,1010.3
2018-11-02T10:43:13.775Z,1010.3
2018-11-02T10:44:15.860Z,1010.3
2018-11-02T10:45:17.852Z,1010.3
2018-11-02T10:46:19.862Z,1010.4
2018-11-02T10:47:21.887Z,1010.3
2018-11-02T10:48:23.920Z,1010.3
2018-11-02T10:49:25.996Z,1010.3
2018-11-02T10:50:27.968Z,1010.4
2018-11-02T10:51:30.006Z,1010.3
2018-11-02T10:52:32.032Z,1010.3
2018-11-02T10:53:34.440Z,1010.4
2018-11-02T10:54:36.563Z,1010.3
2018-11-02T10:55:38.502Z,1010.3
2018-11-02T10:56:40.553Z,1010.4
2018-11-02T10:57:43.390Z,1010.4
2018-11-02T10:58:45.707Z,1010.4
2018-11-02T10:59:48.135Z,1010.4
2018-11-02T11:00:50.324Z,1010.3
2018-11-02T11:01:52.698Z,1010.4
2018-11-02T11:02:54.732Z,1010.4
2018-11-02T11:03:56.753Z,1010.5
2018-11-02T11:04:58.794Z,1010.5
2018-11-02T11:06:00.824Z,1010.5
2018-11-02T11:07:02.856Z,1010.5
2018-11-02T11:08:04.882Z,1010.5
2018-11-02T11:09:07.203Z,1010.6
2018-11-02T11:10:09.609Z,1010.6
2018-11-02T11:11:11.638Z,1010.6
2018-11-02T11:12:14.143Z,1010.8
2018-11-02T11:13:17.007Z,1010.7
2018-11-02T11:14:20.544Z,1010.6
2018-11-02T11:15:22.570Z,1010.7
2018-11-02T11:16:24.613Z,1010.7
2018-11-02T11:17:26.635Z,1010.7
2018-11-02T11:18:28.971Z,1010.8
2018-11-02T11:19:31.377Z,1010.8
2018-11-02T11:20:33.400Z,1010.8
2018-11-02T11:21:35.477Z,1010.8
2018-11-02T11:22:37.878Z,1010.8
2018-11-02T11:23:39.904Z,1010.9
2018-11-02T11:24:41.939Z,1010.9
2018-11-02T11:25:43.970Z,1010.9
2018-11-02T11:26:46.373Z,1010.9
2018-11-02T11:27:48.409Z,1010.9
2018-11-02T11:28:50.757Z,1011
2018-11-02T11:29:53.052Z,1010.9
2018-11-02T11:30:55.095Z,1010.9
2018-11-02T11:31:57.124Z,1011
2018-11-02T11:32:59.158Z,1011
2018-11-02T11:34:01.186Z,1011
2018-11-02T11:35:03.611Z,1011
2018-11-02T11:36:05.652Z,1011
2018-11-02T11:37:07.980Z,1011.1
2018-11-02T11:38:10.019Z,1011
2018-11-02T11:39:12.721Z,1011.1
2018-11-02T11:40:14.749Z,1011
2018-11-02T11:41:16.777Z,1011
2018-11-02T11:42:18.811Z,1011.1
2018-11-02T11:43:20.834Z,1011.1
2018-11-02T11:44:22.865Z,1011.1
2018-11-02T11:45:24.902Z,1011
2018-11-02T11:46:26.921Z,1011
2018-11-02T11:47:28.959Z,1011
2018-11-02T11:48:31.383Z,1011.1
2018-11-02T11:49:33.324Z,1011.1
2018-11-02T11:50:35.736Z,1011.1
2018-11-02T11:51:37.766Z,1011.1
2018-11-02T11:52:39.789Z,1011.2
2018-11-02T11:53:41.814Z,1011.1
2018-11-02T11:54:43.873Z,1011.1
2018-11-02T11:55:46.265Z,1011.1
2018-11-02T11:56:48.296Z,1011.1
2018-11-02T11:57:50.334Z,1011.1
2018-11-02T11:58:52.372Z,1011.1
2018-11-02T11:59:54.784Z,1011.3
2018-11-02T12:00:56.817Z,1011.2
2018-11-02T12:01:59.229Z,1011.2
2018-11-02T12:03:01.641Z,1011.2
2018-11-02T12:04:04.073Z,1011.2
2018-11-02T12:05:06.182Z,1011.3
2018-11-02T12:06:08.128Z,1011.2
2018-11-02T12:07:10.166Z,1011.4
2018-11-02T12:08:12.611Z,1011.2
2018-11-02T12:09:14.683Z,1011.2
2018-11-02T12:10:16.739Z,1011.3
2018-11-02T12:11:20.449Z,1011.3
2018-11-02T12:12:22.491Z,1011.3
2018-11-02T12:13:24.526Z,1011.4
2018-11-02T12:14:27.247Z,1011.3
2018-11-02T12:15:29.275Z,1011.3
2018-11-02T12:16:31.936Z,1011.5
2018-11-02T12:17:33.966Z,1011.5
2018-11-02T12:18:35.996Z,1011.4
2018-11-02T12:19:38.361Z,1011.5
2018-11-02T12:20:40.386Z,1011.5
2018-11-02T12:21:42.470Z,1011.5
2018-11-02T12:22:44.457Z,1011.5
2018-11-02T12:23:46.483Z,1011.4
2018-11-02T12:24:48.509Z,1011.5
2018-11-02T12:25:50.541Z,1011.4
2018-11-02T12:26:52.600Z,1011.4
2018-11-02T12:27:54.613Z,1011.4
2018-11-02T12:28:57.121Z,1011.4
2018-11-02T12:29:58.985Z,1011.4
2018-11-02T12:31:01.699Z,1011.4
2018-11-02T12:32:04.121Z,1011.5
2018-11-02T12:33:06.470Z,1011.4
2018-11-02T12:34:08.794Z,1011.4
2018-11-02T12:35:10.833Z,1011.4
2018-11-02T12:36:12.862Z,1011.4
2018-11-02T12:37:15.276Z,1011.4
2018-11-02T12:38:17.213Z,1011.4
2018-11-02T12:39:19.924Z,1011.4
2018-11-02T12:40:21.973Z,1011.4
2018-11-02T12:41:24.392Z,1011.5
2018-11-02T12:42:26.433Z,1011.5
2018-11-02T12:43:28.866Z,1011.5
2018-11-02T12:44:30.790Z,1011.5
2018-11-02T12:45:32.860Z,1011.5
2018-11-02T12:46:34.893Z,1011.6
2018-11-02T12:47:36.918Z,1011.6
2018-11-02T12:48:39.085Z,1011.6
2018-11-02T12:49:41.388Z,1011.6
2018-11-02T12:50:43.031Z,1011.5
2018-11-02T12:51:45.056Z,1011.6
2018-11-02T12:52:47.488Z,1011.5
2018-11-02T12:53:49.810Z,1011.5
2018-11-02T12:54:51.846Z,1011.5
2018-11-02T12:55:53.871Z,1011.4
2018-11-02T12:56:55.907Z,1011.5
2018-11-02T12:57:57.934Z,1011.6
2018-11-02T12:59:00.331Z,1011.7
2018-11-02T13:00:02.372Z,1011.7
2018-11-02T13:01:04.392Z,1011.7
2018-11-02T13:02:06.438Z,1011.7
2018-11-02T13:03:08.472Z,1011.7